Time;durP1;ratioP1;P1;durP2;ratioP2;P2;SDS_P1;SDS_P2;PMS_P1;PMS_P2;Temp;Humidity;BMP_temperature;BMP_pressure;BME280_temperature;BME280_humidity;BME280_pressure;Samples;Min_cycle;Max_cycle;Signal;HPM_P1;HPM_P2
2023/08/03 00:02:11;;;;;;;;;;;15.70;99.90;;;;;;5096453;28;19953;-67
2023/08/03 00:04:38;;;;;;;;;;;15.70;99.90;;;;;;5114642;28;20303;-67
2023/08/03 00:07:05;;;;;;;;;;;15.70;99.90;;;;;;5114312;28;20444;-67
2023/08/03 00:09:32;;;;;;;;;;;15.70;99.90;;;;;;5096622;28;19924;-67
2023/08/03 00:12:00;;;;;;;;;;;15.70;99.90;;;;;;5096504;28;19928;-67
2023/08/03 00:14:27;;;;;;;;;;;15.70;99.90;;;;;;5112350;28;19927;-67
2023/08/03 00:16:53;;;;;;;;;;;15.70;99.90;;;;;;5114968;28;19924;-67
2023/08/03 00:19:20;;;;;;;;;;;15.70;99.90;;;;;;5114820;28;19985;-67
2023/08/03 00:21:47;;;;;;;;;;;15.70;99.90;;;;;;5096076;28;20372;-67
2023/08/03 00:24:13;;;;;;;;;;;15.80;99.90;;;;;;5114832;28;19924;-67
2023/08/03 00:26:40;;;;;;;;;;;15.70;99.90;;;;;;5096677;28;20340;-67
2023/08/03 00:29:08;;;;;;;;;;;15.80;99.90;;;;;;5093886;28;19935;-67
2023/08/03 00:31:35;;;;;;;;;;;15.80;99.90;;;;;;5096366;28;19924;-67
2023/08/03 00:34:02;;;;;;;;;;;15.80;99.90;;;;;;5114715;28;19924;-67
2023/08/03 00:36:28;;;;;;;;;;;15.80;99.90;;;;;;5113797;28;19924;-68
2023/08/03 00:38:55;;;;;;;;;;;15.80;99.90;;;;;;5096267;28;19981;-67
2023/08/03 00:41:22;;;;;;;;;;;15.80;99.90;;;;;;5096315;28;19938;-67
2023/08/03 00:43:48;;;;;;;;;;;15.80;99.90;;;;;;5094232;28;19927;-67
2023/08/03 00:46:17;;;;;;;;;;;15.80;99.90;;;;;;5114133;28;19938;-67
2023/08/03 00:48:43;;;;;;;;;;;15.80;99.90;;;;;;5095822;28;19924;-67
2023/08/03 00:51:11;;;;;;;;;;;15.80;99.90;;;;;;5093394;28;19931;-67
2023/08/03 00:53:39;;;;;;;;;;;15.80;99.90;;;;;;5095547;28;20010;-67
2023/08/03 00:56:06;;;;;;;;;;;15.80;99.90;;;;;;5113600;28;19923;-67
2023/08/03 00:58:33;;;;;;;;;;;16.30;99.90;;;;;;5095650;28;19932;-68
2023/08/03 01:01:00;;;;;;;;;;;15.80;99.90;;;;;;5095842;28;19931;-67
2023/08/03 01:03:28;;;;;;;;;;;15.80;99.90;;;;;;5113352;28;19988;-67
2023/08/03 01:05:54;;;;;;;;;;;15.80;99.90;;;;;;5095768;28;19928;-67
2023/08/03 01:08:21;;;;;;;;;;;15.80;99.90;;;;;;5095792;28;20417;-67
2023/08/03 01:10:48;;;;;;;;;;;15.80;99.90;;;;;;5113459;28;19924;-67
2023/08/03 01:13:15;;;;;;;;;;;15.80;99.90;;;;;;5113476;28;19924;-67
2023/08/03 01:15:41;;;;;;;;;;;15.80;99.90;;;;;;5113665;28;19924;-67
2023/08/03 01:18:08;;;;;;;;;;;15.80;99.90;;;;;;5112832;28;19930;-67
2023/08/03 01:20:37;;;;;;;;;;;15.80;99.90;;;;;;5095356;28;20018;-67
2023/08/03 01:23:05;;;;;;;;;;;15.80;99.90;;;;;;5113619;28;19924;-67
2023/08/03 01:25:32;;;;;;;;;;;15.80;99.90;;;;;;5113088;28;19924;-67
2023/08/03 01:27:59;;;;;;;;;;;15.80;99.90;;;;;;5095573;28;20428;-67
2023/08/03 01:30:26;;;;;;;;;;;15.80;99.90;;;;;;5113673;28;19972;-67
2023/08/03 01:32:52;;;;;;;;;;;15.80;99.90;;;;;;5092497;28;19924;-67
2023/08/03 01:35:19;;;;;;;;;;;15.80;99.90;;;;;;5094695;28;20375;-67
2023/08/03 01:37:46;;;;;;;;;;;15.80;99.90;;;;;;5113035;28;19947;-67
2023/08/03 01:40:14;;;;;;;;;;;15.80;99.90;;;;;;5094647;28;20391;-67
2023/08/03 01:42:41;;;;;;;;;;;15.80;99.90;;;;;;5113278;28;19973;-67
2023/08/03 01:45:08;;;;;;;;;;;15.70;99.90;;;;;;5113338;28;19990;-67
2023/08/03 01:47:34;;;;;;;;;;;15.70;99.90;;;;;;5094804;28;19924;-67
2023/08/03 01:50:01;;;;;;;;;;;15.70;99.90;;;;;;5095345;28;19977;-68
2023/08/03 01:52:28;;;;;;;;;;;15.70;99.90;;;;;;5112556;28;20451;-67
2023/08/03 01:54:55;;;;;;;;;;;15.70;99.90;;;;;;5110881;28;19966;-67
2023/08/03 01:57:23;;;;;;;;;;;15.70;99.90;;;;;;5095218;28;19924;-67
2023/08/03 01:59:50;;;;;;;;;;;15.70;99.90;;;;;;5093534;28;19923;-67
2023/08/03 02:02:16;;;;;;;;;;;15.70;99.90;;;;;;5094692;28;19951;-68
2023/08/03 02:04:43;;;;;;;;;;;15.80;99.90;;;;;;5095081;28;20375;-67
2023/08/03 02:07:10;;;;;;;;;;;15.80;99.90;;;;;;5112624;28;19924;-68
2023/08/03 02:09:37;;;;;;;;;;;15.80;99.90;;;;;;5113372;28;19930;-68
2023/08/03 02:12:04;;;;;;;;;;;15.70;99.90;;;;;;5112902;28;19924;-67
2023/08/03 02:14:32;;;;;;;;;;;15.80;99.90;;;;;;5112339;28;19930;-68
2023/08/03 02:16:59;;;;;;;;;;;15.80;99.90;;;;;;5094809;28;20383;-68
2023/08/03 02:19:25;;;;;;;;;;;15.80;99.90;;;;;;5112854;28;19924;-67
2023/08/03 02:21:52;;;;;;;;;;;15.80;99.90;;;;;;5112278;28;19935;-67
2023/08/03 02:24:19;;;;;;;;;;;15.80;99.90;;;;;;5112948;28;19924;-68
2023/08/03 02:26:46;;;;;;;;;;;15.80;99.90;;;;;;5110915;28;19924;-68
2023/08/03 02:29:13;;;;;;;;;;;15.80;99.90;;;;;;5093759;28;19931;-67
2023/08/03 02:31:41;;;;;;;;;;;15.70;99.90;;;;;;5112854;28;20342;-67
2023/08/03 02:34:07;;;;;;;;;;;15.80;99.90;;;;;;5112775;28;19924;-68
2023/08/03 02:36:34;;;;;;;;;;;15.80;99.90;;;;;;5112283;28;19924;-68
2023/08/03 02:39:01;;;;;;;;;;;15.80;99.90;;;;;;5112584;28;19931;-67
2023/08/03 02:41:27;;;;;;;;;;;15.80;99.90;;;;;;5112747;28;19924;-67
2023/08/03 02:43:54;;;;;;;;;;;15.80;99.90;;;;;;5111738;28;19924;-68
2023/08/03 02:46:21;;;;;;;;;;;15.80;99.90;;;;;;5112639;28;19930;-67
2023/08/03 02:48:49;;;;;;;;;;;15.80;99.90;;;;;;5093858;28;20320;-68
2023/08/03 02:51:16;;;;;;;;;;;15.80;99.90;;;;;;5112799;28;19927;-68
2023/08/03 02:53:43;;;;;;;;;;;15.80;99.90;;;;;;5094273;28;19924;-68
2023/08/03 02:56:09;;;;;;;;;;;15.80;99.90;;;;;;5112008;28;20413;-68
2023/08/03 02:58:36;;;;;;;;;;;15.80;99.90;;;;;;5112328;28;19977;-68
2023/08/03 03:01:04;;;;;;;;;;;15.80;99.90;;;;;;5112658;28;19923;-68
2023/08/03 03:03:31;;;;;;;;;;;15.90;99.90;;;;;;5093965;28;19924;-68
2023/08/03 03:05:59;;;;;;;;;;;15.90;99.90;;;;;;5112372;28;20288;-68
2023/08/03 03:08:26;;;;;;;;;;;15.80;99.90;;;;;;5115411;28;19931;-68
2023/08/03 03:10:53;;;;;;;;;;;15.90;99.90;;;;;;5097298;28;19924;-68
2023/08/03 03:13:19;;;;;;;;;;;15.90;99.90;;;;;;5097917;28;19928;-68
2023/08/03 03:15:46;;;;;;;;;;;15.80;99.90;;;;;;5115696;28;19924;-68
2023/08/03 03:18:13;;;;;;;;;;;15.90;99.90;;;;;;5097446;28;19931;-68
2023/08/03 03:20:39;;;;;;;;;;;15.90;99.90;;;;;;5097740;28;20340;-68
2023/08/03 03:23:07;;;;;;;;;;;15.90;99.90;;;;;;5115943;28;19931;-68
2023/08/03 03:25:34;;;;;;;;;;;15.90;99.90;;;;;;5115070;28;19968;-68
2023/08/03 03:28:04;;;;;;;;;;;15.90;99.90;;;;;;5115684;28;19977;-67
2023/08/03 03:30:31;;;;;;;;;;;15.90;99.90;;;;;;5115731;28;19931;-67
2023/08/03 03:32:57;;;;;;;;;;;15.90;99.90;;;;;;5115073;28;19924;-67
2023/08/03 03:35:24;;;;;;;;;;;15.90;99.90;;;;;;5113385;28;19923;-67
2023/08/03 03:37:51;;;;;;;;;;;15.90;99.90;;;;;;5097582;28;19967;-68
2023/08/03 03:40:19;;;;;;;;;;;15.90;99.90;;;;;;5115020;28;19927;-67
2023/08/03 03:42:46;;;;;;;;;;;15.90;99.90;;;;;;5115174;28;21195;-67
2023/08/03 03:45:12;;;;;;;;;;;15.90;99.90;;;;;;5114657;28;19934;-69
2023/08/03 03:47:39;;;;;;;;;;;15.90;99.90;;;;;;5115166;28;19953;-69
2023/08/03 03:50:06;;;;;;;;;;;15.90;99.90;;;;;;5115089;28;19924;-69
2023/08/03 03:52:33;;;;;;;;;;;16.00;99.90;;;;;;5108500;28;19984;-70
2023/08/03 03:55:00;;;;;;;;;;;16.00;99.90;;;;;;5083958;28;19931;-69
2023/08/03 03:57:28;;;;;;;;;;;16.00;99.90;;;;;;5093442;28;19928;-69
2023/08/03 03:59:55;;;;;;;;;;;16.10;99.90;;;;;;5109635;28;20225;-69
2023/08/03 04:02:21;;;;;;;;;;;16.10;99.90;;;;;;5092282;28;19935;-69
2023/08/03 04:04:48;;;;;;;;;;;16.20;99.90;;;;;;5095490;28;19928;-69
2023/08/03 04:07:15;;;;;;;;;;;16.20;99.90;;;;;;5092304;28;19924;-69
2023/08/03 04:09:41;;;;;;;;;;;16.30;99.90;;;;;;5095229;28;20276;-69
2023/08/03 04:12:08;;;;;;;;;;;16.40;99.90;;;;;;5110796;28;19932;-69
2023/08/03 04:14:36;;;;;;;;;;;16.30;99.90;;;;;;5094215;28;19931;-69
2023/08/03 04:17:03;;;;;;;;;;;16.30;99.90;;;;;;5111210;27;19972;-69
2023/08/03 04:19:30;;;;;;;;;;;16.30;99.90;;;;;;5124838;27;19935;-69
2023/08/03 04:21:57;;;;;;;;;;;16.40;99.90;;;;;;5109773;28;19932;-70
2023/08/03 04:24:23;;;;;;;;;;;16.40;99.90;;;;;;5091354;28;19928;-70
2023/08/03 04:26:50;;;;;;;;;;;16.40;99.90;;;;;;5111665;28;20006;-70
2023/08/03 04:29:17;;;;;;;;;;;16.40;99.90;;;;;;5091491;28;19923;-69
2023/08/03 04:31:45;;;;;;;;;;;16.40;99.90;;;;;;5094397;28;19923;-69
2023/08/03 04:34:11;;;;;;;;;;;16.40;99.90;;;;;;5093160;28;20383;-69
2023/08/03 04:36:39;;;;;;;;;;;16.40;99.90;;;;;;5094847;28;19938;-69
2023/08/03 04:39:06;;;;;;;;;;;16.50;99.90;;;;;;5093798;28;20440;-70
2023/08/03 04:41:32;;;;;;;;;;;16.60;99.90;;;;;;5093162;28;19977;-70
2023/08/03 04:43:59;;;;;;;;;;;16.60;99.90;;;;;;5110098;28;19924;-71
2023/08/03 04:46:27;;;;;;;;;;;16.60;99.90;;;;;;5094978;28;19924;-69
2023/08/03 04:48:55;;;;;;;;;;;16.60;99.90;;;;;;5110757;28;19934;-69
2023/08/03 04:51:22;;;;;;;;;;;16.60;99.90;;;;;;5093743;28;19927;-69
2023/08/03 04:53:48;;;;;;;;;;;16.60;99.90;;;;;;5094143;28;19927;-69
2023/08/03 04:56:15;;;;;;;;;;;16.60;99.90;;;;;;5110950;28;19924;-70
2023/08/03 04:58:42;;;;;;;;;;;16.70;99.90;;;;;;5092833;28;19924;-68
2023/08/03 05:01:08;;;;;;;;;;;16.70;99.90;;;;;;5094760;28;19973;-67
2023/08/03 05:03:35;;;;;;;;;;;16.70;99.90;;;;;;5109773;28;20272;-68
2023/08/03 05:06:03;;;;;;;;;;;16.60;99.90;;;;;;5113397;28;20295;-68
2023/08/03 05:08:30;;;;;;;;;;;16.50;99.90;;;;;;5111114;28;19932;-69
2023/08/03 05:10:57;;;;;;;;;;;16.50;99.90;;;;;;5112149;28;20367;-69
2023/08/03 05:13:23;;;;;;;;;;;16.50;99.90;;;;;;5091055;28;19938;-69
2023/08/03 05:15:50;;;;;;;;;;;16.50;99.90;;;;;;5092560;28;20387;-69
2023/08/03 05:18:17;;;;;;;;;;;16.50;99.90;;;;;;5109718;28;20359;-69
2023/08/03 05:20:44;;;;;;;;;;;16.50;99.90;;;;;;5092162;28;19927;-69
2023/08/03 05:23:12;;;;;;;;;;;16.50;99.90;;;;;;5110207;28;19972;-68
2023/08/03 05:25:39;;;;;;;;;;;16.50;99.90;;;;;;5106808;28;20007;-69
2023/08/03 05:28:05;;;;;;;;;;;16.50;99.90;;;;;;5109811;28;20276;-68
2023/08/03 05:30:33;;;;;;;;;;;16.50;99.90;;;;;;5109237;28;19932;-68
2023/08/03 05:33:01;;;;;;;;;;;16.40;99.90;;;;;;5112001;28;19970;-68
2023/08/03 05:35:28;;;;;;;;;;;16.50;99.90;;;;;;5091394;28;19928;-68
2023/08/03 05:37:54;;;;;;;;;;;16.50;99.90;;;;;;5110134;28;19931;-68
2023/08/03 05:40:22;;;;;;;;;;;16.60;99.90;;;;;;5110288;28;19977;-68
2023/08/03 05:42:49;;;;;;;;;;;16.70;99.90;;;;;;5110437;28;19992;-68
2023/08/03 05:45:38;;;;;;;;;;;16.90;99.90;;;;;;5092966;28;19927;-68
2023/08/03 05:48:12;;;;;;;;;;;17.10;99.90;;;;;;5123665;27;19931;-68
2023/08/03 05:50:41;;;;;;;;;;;17.30;99.90;;;;;;5109620;28;20435;-68
2023/08/03 05:53:09;;;;;;;;;;;17.40;99.90;;;;;;5091864;28;19924;-68
2023/08/03 05:55:37;;;;;;;;;;;17.50;99.90;;;;;;5092723;28;19928;-68
2023/08/03 05:58:04;;;;;;;;;;;17.40;99.90;;;;;;5110754;28;19935;-68
2023/08/03 06:00:31;;;;;;;;;;;17.30;99.90;;;;;;5110714;28;19924;-68
2023/08/03 06:02:58;;;;;;;;;;;17.30;99.90;;;;;;5092007;28;20291;-67
2023/08/03 06:05:36;;;;;;;;;;;17.30;99.90;;;;;;5091478;28;19924;-67
2023/08/03 06:08:09;;;;;;;;;;;17.40;99.90;;;;;;5110439;28;19931;-68
2023/08/03 06:10:37;;;;;;;;;;;17.50;99.90;;;;;;5093791;28;19927;-68
2023/08/03 06:13:04;;;;;;;;;;;17.50;99.90;;;;;;5109414;28;19938;-68
2023/08/03 06:15:31;;;;;;;;;;;17.50;99.90;;;;;;5110845;28;19924;-68
2023/08/03 06:18:01;;;;;;;;;;;17.50;99.90;;;;;;5092499;28;19935;-68
2023/08/03 06:20:28;;;;;;;;;;;17.50;99.90;;;;;;5093488;28;19923;-69
2023/08/03 06:22:54;;;;;;;;;;;17.60;99.90;;;;;;5108644;28;20272;-69
2023/08/03 06:25:22;;;;;;;;;;;17.60;99.90;;;;;;5110627;28;19973;-68
2023/08/03 06:27:50;;;;;;;;;;;17.80;99.90;;;;;;5092602;28;19930;-69
2023/08/03 06:30:18;;;;;;;;;;;17.90;99.90;;;;;;5093954;28;19942;-68
2023/08/03 06:32:45;;;;;;;;;;;17.90;99.90;;;;;;5110209;28;20425;-69
2023/08/03 06:35:24;;;;;;;;;;;18.00;99.90;;;;;;5092228;28;19923;-69
2023/08/03 06:37:50;;;;;;;;;;;18.20;99.90;;;;;;5092784;28;20440;-69
2023/08/03 06:40:17;;;;;;;;;;;18.40;99.90;;;;;;5092178;28;20287;-69
2023/08/03 06:42:44;;;;;;;;;;;18.50;99.90;;;;;;5094341;28;19969;-68
2023/08/03 06:45:13;;;;;;;;;;;18.40;99.90;;;;;;5113197;28;20343;-68
2023/08/03 06:47:40;;;;;;;;;;;18.40;99.90;;;;;;5096499;28;19934;-68
2023/08/03 06:50:08;;;;;;;;;;;18.50;99.90;;;;;;5113594;28;20337;-68
2023/08/03 06:52:35;;;;;;;;;;;18.40;99.90;;;;;;5112989;28;19977;-68
2023/08/03 06:55:01;;;;;;;;;;;18.50;99.90;;;;;;5108803;28;19924;-68
2023/08/03 06:57:28;;;;;;;;;;;18.50;99.90;;;;;;5096839;28;19928;-69
2023/08/03 06:59:56;;;;;;;;;;;18.70;99.90;;;;;;5113961;28;19927;-68
2023/08/03 07:02:24;;;;;;;;;;;18.90;99.90;;;;;;5113416;28;20287;-68
2023/08/03 07:04:50;;;;;;;;;;;19.30;99.90;;;;;;5113001;28;19928;-68
2023/08/03 07:07:17;;;;;;;;;;;19.30;99.90;;;;;;5114779;28;19935;-68
2023/08/03 07:09:48;;;;;;;;;;;19.30;99.90;;;;;;5112535;28;20371;-68
2023/08/03 07:12:14;;;;;;;;;;;19.60;99.90;;;;;;5096948;28;19924;-68
2023/08/03 07:14:41;;;;;;;;;;;20.10;99.90;;;;;;5110874;28;19931;-69
2023/08/03 07:17:08;;;;;;;;;;;20.70;99.90;;;;;;5094500;28;20074;-69
2023/08/03 07:19:36;;;;;;;;;;;21.40;99.90;;;;;;5096037;28;19923;-67
2023/08/03 07:22:04;;;;;;;;;;;22.20;99.90;;;;;;5112959;28;19931;-68
2023/08/03 07:24:32;;;;;;;;;;;22.70;99.90;;;;;;5113755;28;20006;-69
2023/08/03 07:27:00;;;;;;;;;;;23.10;99.90;;;;;;5094558;28;19930;-69
2023/08/03 07:29:27;;;;;;;;;;;22.60;99.90;;;;;;5114431;28;19924;-69
2023/08/03 07:31:54;;;;;;;;;;;22.10;99.90;;;;;;5111957;28;19936;-69
2023/08/03 07:34:20;;;;;;;;;;;21.70;99.90;;;;;;5112134;28;20298;-69
2023/08/03 07:36:51;;;;;;;;;;;22.30;99.90;;;;;;5111131;28;19931;-69
2023/08/03 07:39:17;;;;;;;;;;;23.10;99.90;;;;;;5095708;28;19931;-68
2023/08/03 07:41:44;;;;;;;;;;;23.80;99.90;;;;;;5113473;28;19936;-69
2023/08/03 07:44:11;;;;;;;;;;;23.70;99.90;;;;;;5065895;28;19928;-69
2023/08/03 07:46:38;;;;;;;;;;;22.90;99.90;;;;;;5113233;28;19924;-69
2023/08/03 07:49:04;;;;;;;;;;;23.00;99.90;;;;;;5095428;28;19923;-69
2023/08/03 07:51:31;;;;;;;;;;;23.60;99.90;;;;;;5094549;28;19984;-69
2023/08/03 07:53:59;;;;;;;;;;;23.50;99.90;;;;;;5113845;28;19931;-69
2023/08/03 07:56:26;;;;;;;;;;;22.90;99.90;;;;;;5096063;28;19930;-69
2023/08/03 07:58:53;;;;;;;;;;;22.10;99.90;;;;;;5113905;28;19931;-69
2023/08/03 08:01:20;;;;;;;;;;;22.00;99.90;;;;;;5095330;28;19984;-68
2023/08/03 08:03:47;;;;;;;;;;;21.60;99.90;;;;;;5093452;28;19931;-69
2023/08/03 08:06:15;;;;;;;;;;;22.20;99.90;;;;;;5112146;28;19924;-69
2023/08/03 08:08:42;;;;;;;;;;;23.00;99.90;;;;;;5113249;28;19931;-68
2023/08/03 08:11:10;;;;;;;;;;;23.50;99.90;;;;;;5112611;28;19931;-68
2023/08/03 08:13:37;;;;;;;;;;;23.50;99.90;;;;;;5109707;28;19931;-69
2023/08/03 08:16:05;;;;;;;;;;;22.90;99.90;;;;;;5093555;28;19923;-69
2023/08/03 08:18:32;;;;;;;;;;;22.20;99.90;;;;;;5112137;28;19935;-68
2023/08/03 08:20:59;;;;;;;;;;;21.90;99.90;;;;;;5094217;28;19980;-69
2023/08/03 08:23:26;;;;;;;;;;;21.50;99.90;;;;;;5113254;28;20284;-68
2023/08/03 08:25:53;;;;;;;;;;;21.40;99.90;;;;;;5112931;28;20360;-69
2023/08/03 08:28:21;;;;;;;;;;;21.90;99.90;;;;;;5112612;28;20430;-69
2023/08/03 08:30:47;;;;;;;;;;;23.00;99.90;;;;;;5093261;28;19923;-69
2023/08/03 08:33:15;;;;;;;;;;;23.80;99.90;;;;;;5094937;28;19973;-69
2023/08/03 08:35:41;;;;;;;;;;;23.80;99.90;;;;;;5111101;28;19924;-70
2023/08/03 08:38:09;;;;;;;;;;;23.30;99.90;;;;;;5094918;28;19924;-69
2023/08/03 08:40:36;;;;;;;;;;;23.40;99.90;;;;;;5093408;28;19923;-69
2023/08/03 08:43:03;;;;;;;;;;;23.90;99.90;;;;;;5112523;28;19930;-69
2023/08/03 08:45:32;;;;;;;;;;;24.30;99.90;;;;;;5111450;28;20299;-70
2023/08/03 08:47:59;;;;;;;;;;;24.40;99.90;;;;;;5112538;28;20012;-72
2023/08/03 08:50:25;;;;;;;;;;;24.50;99.90;;;;;;5094620;28;19923;-73
2023/08/03 08:52:52;;;;;;;;;;;25.00;99.90;;;;;;5112404;28;20306;-72
2023/08/03 08:55:20;;;;;;;;;;;26.00;99.90;;;;;;5096384;28;19980;-68
2023/08/03 08:57:47;;;;;;;;;;;26.50;99.90;;;;;;5113107;28;19924;-70
2023/08/03 09:00:14;;;;;;;;;;;26.80;99.90;;;;;;5094424;28;19928;-69
2023/08/03 09:02:42;;;;;;;;;;;25.50;99.90;;;;;;5089910;28;19935;-70
2023/08/03 09:05:09;;;;;;;;;;;25.10;99.90;;;;;;5108426;28;20367;-70
2023/08/03 09:07:36;;;;;;;;;;;25.30;99.90;;;;;;5093676;28;20325;-70
2023/08/03 09:10:03;;;;;;;;;;;25.00;99.90;;;;;;5112168;28;20410;-70
2023/08/03 09:12:30;;;;;;;;;;;24.20;99.90;;;;;;5093006;28;20566;-70
2023/08/03 09:14:57;;;;;;;;;;;24.00;99.90;;;;;;5094126;28;19927;-70
2023/08/03 09:17:24;;;;;;;;;;;24.60;99.90;;;;;;5110352;28;20468;-69
2023/08/03 09:19:53;;;;;;;;;;;25.30;99.90;;;;;;5094058;28;20367;-70
2023/08/03 09:22:20;;;;;;;;;;;26.20;99.90;;;;;;5111141;28;19932;-70
2023/08/03 09:24:47;;;;;;;;;;;27.10;99.90;;;;;;5111957;28;19931;-69
2023/08/03 09:27:16;;;;;;;;;;;26.50;99.90;;;;;;5091455;28;19978;-69
2023/08/03 09:29:43;;;;;;;;;;;25.80;99.90;;;;;;5093742;28;20375;-69
2023/08/03 09:32:10;;;;;;;;;;;24.80;99.90;;;;;;5093059;28;19924;-69
2023/08/03 09:34:37;;;;;;;;;;;24.80;99.90;;;;;;5094302;28;19950;-69
2023/08/03 09:37:06;;;;;;;;;;;24.80;99.90;;;;;;5109739;28;20464;-69
2023/08/03 09:39:34;;;;;;;;;;;24.70;99.90;;;;;;5112158;28;19976;-69
2023/08/03 09:42:03;;;;;;;;;;;25.00;99.90;;;;;;5109998;28;19927;-69
2023/08/03 09:44:30;;;;;;;;;;;25.80;99.90;;;;;;5126544;27;20354;-69
2023/08/03 09:46:57;;;;;;;;;;;26.40;99.90;;;;;;5092389;28;20287;-69
2023/08/03 09:49:25;;;;;;;;;;;26.30;99.90;;;;;;5109716;28;19928;-69
2023/08/03 09:51:53;;;;;;;;;;;25.70;99.90;;;;;;5111801;28;20374;-68
2023/08/03 09:54:25;;;;;;;;;;;24.80;99.90;;;;;;5091678;28;19924;-69
2023/08/03 09:56:53;;;;;;;;;;;24.70;99.90;;;;;;5093151;28;19928;-69
2023/08/03 09:59:24;;;;;;;;;;;25.30;99.90;;;;;;5091125;28;19954;-69
2023/08/03 10:01:52;;;;;;;;;;;25.90;99.90;;;;;;5093156;28;19939;-69
2023/08/03 10:04:20;;;;;;;;;;;26.10;99.90;;;;;;5093422;28;19976;-69
2023/08/03 10:06:49;;;;;;;;;;;26.00;99.90;;;;;;5093321;28;20356;-70
2023/08/03 10:09:19;;;;;;;;;;;26.60;99.90;;;;;;5110077;28;19935;-70
2023/08/03 10:11:51;;;;;;;;;;;27.30;99.90;;;;;;5092552;28;19930;-70
2023/08/03 10:14:18;;;;;;;;;;;27.70;99.90;;;;;;5092450;28;20015;-69
2023/08/03 10:16:45;;;;;;;;;;;28.00;99.90;;;;;;5113190;28;20375;-69
2023/08/03 10:19:12;;;;;;;;;;;28.40;99.90;;;;;;5113285;28;20375;-69
2023/08/03 10:21:39;;;;;;;;;;;28.40;99.90;;;;;;5115910;28;20294;-70
2023/08/03 10:24:12;;;;;;;;;;;27.70;99.90;;;;;;5114787;28;19984;-69
2023/08/03 10:26:39;;;;;;;;;;;27.70;99.90;;;;;;5096433;28;19935;-70
2023/08/03 10:29:07;;;;;;;;;;;28.00;99.90;;;;;;5115355;28;20377;-69
2023/08/03 10:31:34;;;;;;;;;;;27.80;99.90;;;;;;5114015;28;19930;-70
2023/08/03 10:34:04;;;;;;;;;;;27.40;99.90;;;;;;5094661;28;19935;-70
2023/08/03 10:36:38;;;;;;;;;;;27.10;99.90;;;;;;5101777;28;20486;-69
2023/08/03 10:39:06;;;;;;;;;;;27.10;99.90;;;;;;5115576;28;19930;-70
2023/08/03 10:41:36;;;;;;;;;;;27.30;99.90;;;;;;5113288;28;19970;-71
2023/08/03 10:44:33;;;;;;;;;;;27.10;99.90;;;;;;5096920;28;19923;-71
2023/08/03 10:47:01;;;;;;;;;;;26.80;99.90;;;;;;5009585;28;19925;-71
2023/08/03 10:49:48;;;;;;;;;;;26.10;99.90;;;;;;5088827;28;19930;-69
2023/08/03 10:52:16;;;;;;;;;;;25.20;99.90;;;;;;5095589;28;19923;-70
2023/08/03 10:54:42;;;;;;;;;;;24.80;99.90;;;;;;5113601;28;19923;-69
2023/08/03 10:57:10;;;;;;;;;;;25.10;99.90;;;;;;5111900;28;19923;-70
2023/08/03 10:59:37;;;;;;;;;;;25.30;99.90;;;;;;5095618;28;19932;-69
2023/08/03 11:02:10;;;;;;;;;;;25.80;99.90;;;;;;5094101;28;19935;-69
2023/08/03 11:04:37;;;;;;;;;;;26.70;99.90;;;;;;5096399;28;19993;-69
2023/08/03 11:07:04;;;;;;;;;;;26.80;99.90;;;;;;5115401;28;19982;-69
2023/08/03 11:09:31;;;;;;;;;;;26.80;99.90;;;;;;5095659;28;19969;-69
2023/08/03 11:11:59;;;;;;;;;;;26.50;99.90;;;;;;5096236;28;20271;-69
2023/08/03 11:14:25;;;;;;;;;;;26.30;99.90;;;;;;5095292;28;19939;-69
2023/08/03 11:16:52;;;;;;;;;;;25.90;99.90;;;;;;5096358;28;19932;-69
2023/08/03 11:19:22;;;;;;;;;;;25.70;99.90;;;;;;5095799;28;20379;-69
2023/08/03 11:21:49;;;;;;;;;;;25.50;99.90;;;;;;5096851;28;20322;-70
2023/08/03 11:24:15;;;;;;;;;;;25.40;99.90;;;;;;5110323;28;19931;-70
2023/08/03 11:26:42;;;;;;;;;;;25.90;99.90;;;;;;5114397;28;19939;-69
2023/08/03 11:29:10;;;;;;;;;;;26.50;99.90;;;;;;5112662;28;19981;-69
2023/08/03 11:31:37;;;;;;;;;;;26.40;99.90;;;;;;5114075;28;20371;-69
2023/08/03 11:34:03;;;;;;;;;;;27.00;99.90;;;;;;5095767;28;20375;-70
2023/08/03 11:36:31;;;;;;;;;;;27.60;99.90;;;;;;5095708;28;20303;-69
2023/08/03 11:38:58;;;;;;;;;;;28.30;99.90;;;;;;5111283;28;19931;-70
2023/08/03 11:41:25;;;;;;;;;;;28.30;99.60;;;;;;5094759;28;20409;-69
2023/08/03 11:43:52;;;;;;;;;;;28.60;99.90;;;;;;5113189;28;19970;-69
2023/08/03 11:46:21;;;;;;;;;;;28.70;99.50;;;;;;5110932;28;20294;-70
2023/08/03 11:48:48;;;;;;;;;;;28.80;99.70;;;;;;5096048;28;19924;-70
2023/08/03 11:51:15;;;;;;;;;;;28.80;98.80;;;;;;5093648;28;19933;-69
2023/08/03 11:53:44;;;;;;;;;;;28.70;98.10;;;;;;5113742;28;20318;-70
2023/08/03 11:56:11;;;;;;;;;;;28.80;97.40;;;;;;5111873;28;20264;-70
2023/08/03 11:58:37;;;;;;;;;;;28.60;98.20;;;;;;5114017;28;19927;-70
2023/08/03 12:01:04;;;;;;;;;;;28.70;98.40;;;;;;5094524;28;19972;-70
2023/08/03 12:03:32;;;;;;;;;;;28.50;98.80;;;;;;5093440;28;19923;-70
2023/08/03 12:06:01;;;;;;;;;;;29.00;98.90;;;;;;5093717;28;19928;-70
2023/08/03 12:08:28;;;;;;;;;;;29.60;98.00;;;;;;5095392;28;19939;-70
2023/08/03 12:11:03;;;;;;;;;;;29.90;98.80;;;;;;5112105;28;19928;-70
2023/08/03 12:13:30;;;;;;;;;;;30.30;97.40;;;;;;5093283;28;20010;-70
2023/08/03 12:15:57;;;;;;;;;;;30.10;96.90;;;;;;5111784;28;19932;-70
2023/08/03 12:18:24;;;;;;;;;;;29.70;96.50;;;;;;5113795;28;20329;-70
2023/08/03 12:20:51;;;;;;;;;;;29.20;96.60;;;;;;5094353;28;19931;-70
2023/08/03 12:23:18;;;;;;;;;;;28.50;98.10;;;;;;5093929;28;19924;-70
2023/08/03 12:25:45;;;;;;;;;;;27.40;99.50;;;;;;5112109;28;20603;-70
2023/08/03 12:28:13;;;;;;;;;;;26.90;99.90;;;;;;5112527;28;19924;-70
2023/08/03 12:30:40;;;;;;;;;;;26.30;99.90;;;;;;5095071;28;19939;-70
2023/08/03 12:33:07;;;;;;;;;;;25.90;99.90;;;;;;5092141;28;19931;-70
2023/08/03 12:35:34;;;;;;;;;;;25.70;99.90;;;;;;5113042;28;19939;-70
2023/08/03 12:38:01;;;;;;;;;;;25.30;99.90;;;;;;5093769;28;20359;-70
2023/08/03 12:40:28;;;;;;;;;;;24.80;99.90;;;;;;5113051;28;19994;-70
2023/08/03 12:42:55;;;;;;;;;;;24.50;99.90;;;;;;5090431;28;19985;-70
2023/08/03 12:45:24;;;;;;;;;;;24.30;99.90;;;;;;5091685;28;19928;-70
2023/08/03 12:47:51;;;;;;;;;;;24.20;99.90;;;;;;5089445;28;20014;-70
2023/08/03 12:50:17;;;;;;;;;;;24.30;99.90;;;;;;5091762;28;20391;-69
2023/08/03 12:52:46;;;;;;;;;;;24.30;99.90;;;;;;5089990;28;19928;-69
2023/08/03 12:55:13;;;;;;;;;;;24.10;99.90;;;;;;5092400;28;20010;-69
2023/08/03 12:57:39;;;;;;;;;;;23.90;99.90;;;;;;5090954;28;19924;-69
2023/08/03 13:00:07;;;;;;;;;;;23.70;99.90;;;;;;5089322;28;19928;-70
2023/08/03 13:02:35;;;;;;;;;;;23.60;99.90;;;;;;5089222;28;20024;-70
2023/08/03 13:05:01;;;;;;;;;;;23.70;99.90;;;;;;5092459;28;20019;-69
2023/08/03 13:07:28;;;;;;;;;;;24.10;99.90;;;;;;5090517;28;20372;-70
2023/08/03 13:09:55;;;;;;;;;;;24.50;99.90;;;;;;5091432;28;19932;-70
2023/08/03 13:12:22;;;;;;;;;;;24.60;99.90;;;;;;5090133;28;20265;-70
2023/08/03 13:14:48;;;;;;;;;;;24.50;99.90;;;;;;5091061;28;19924;-70
2023/08/03 13:17:15;;;;;;;;;;;24.20;99.90;;;;;;5091330;28;19931;-70
2023/08/03 13:19:43;;;;;;;;;;;24.00;99.90;;;;;;5090766;28;20018;-69
2023/08/03 13:22:10;;;;;;;;;;;23.50;99.90;;;;;;5089014;28;19927;-69
2023/08/03 13:24:37;;;;;;;;;;;23.20;99.90;;;;;;5091298;28;19924;-69
2023/08/03 13:27:13;;;;;;;;;;;22.90;99.90;;;;;;5087326;28;19973;-70
2023/08/03 13:29:43;;;;;;;;;;;22.90;99.90;;;;;;5090721;28;20131;-70
2023/08/03 13:32:10;;;;;;;;;;;23.30;99.90;;;;;;5092937;28;19946;-70
2023/08/03 13:34:36;;;;;;;;;;;23.40;99.90;;;;;;5092003;28;19946;-70
2023/08/03 13:37:05;;;;;;;;;;;23.30;99.90;;;;;;5092447;28;20101;-69
2023/08/03 13:39:32;;;;;;;;;;;23.20;99.90;;;;;;5091872;28;19924;-70
2023/08/03 13:41:58;;;;;;;;;;;23.20;99.90;;;;;;5091539;28;19932;-69
2023/08/03 13:44:25;;;;;;;;;;;23.30;99.90;;;;;;5112594;28;20011;-70
2023/08/03 13:46:52;;;;;;;;;;;23.30;99.90;;;;;;5111112;28;19951;-70
2023/08/03 13:49:19;;;;;;;;;;;23.30;99.90;;;;;;5113271;28;19923;-70
2023/08/03 13:51:46;;;;;;;;;;;23.50;99.90;;;;;;5110329;28;19923;-69
2023/08/03 13:54:14;;;;;;;;;;;23.50;99.90;;;;;;5112898;28;19931;-69
2023/08/03 13:56:41;;;;;;;;;;;23.60;99.90;;;;;;5112064;28;19927;-69
2023/08/03 13:59:07;;;;;;;;;;;23.90;99.90;;;;;;5093431;28;19930;-69
2023/08/03 14:01:36;;;;;;;;;;;23.90;99.90;;;;;;5112372;28;19925;-69
2023/08/03 14:04:03;;;;;;;;;;;23.80;99.90;;;;;;5094101;28;19928;-69
2023/08/03 14:06:30;;;;;;;;;;;23.70;99.90;;;;;;5111660;28;20325;-69
2023/08/03 14:08:57;;;;;;;;;;;23.50;99.90;;;;;;5094513;28;19975;-69
2023/08/03 14:11:26;;;;;;;;;;;23.40;99.90;;;;;;5093935;28;20325;-69
2023/08/03 14:13:58;;;;;;;;;;;23.30;99.90;;;;;;5094832;28;20401;-69
2023/08/03 14:16:26;;;;;;;;;;;23.10;99.90;;;;;;5094343;28;19928;-69
2023/08/03 14:18:53;;;;;;;;;;;22.90;99.90;;;;;;5111415;28;19963;-69